sensor_id;sensor_type;location;lat;lon;timestamp;P1;durP1;ratioP1;P2;durP2;ratioP2
74328;SDS011;62745;51.060;13.786;2024-03-25T00:02:06;4.53;;;1.73;;
74328;SDS011;62745;51.060;13.786;2024-03-25T00:04:31;3.88;;;1.58;;
74328;SDS011;62745;51.060;13.786;2024-03-25T00:06:57;4.28;;;1.58;;
74328;SDS011;62745;51.060;13.786;2024-03-25T00:09:23;5.28;;;1.60;;
74328;SDS011;62745;51.060;13.786;2024-03-25T00:11:49;3.00;;;1.40;;
74328;SDS011;62745;51.060;13.786;2024-03-25T00:14:20;3.33;;;1.63;;
74328;SDS011;62745;51.060;13.786;2024-03-25T00:16:46;4.18;;;1.50;;
74328;SDS011;62745;51.060;13.786;2024-03-25T00:19:11;4.22;;;1.73;;
74328;SDS011;62745;51.060;13.786;2024-03-25T00:21:37;4.00;;;1.38;;
74328;SDS011;62745;51.060;13.786;2024-03-25T00:24:03;3.90;;;1.90;;
74328;SDS011;62745;51.060;13.786;2024-03-25T00:26:28;4.90;;;1.77;;
74328;SDS011;62745;51.060;13.786;2024-03-25T00:28:54;3.53;;;1.73;;
74328;SDS011;62745;51.060;13.786;2024-03-25T00:31:19;3.15;;;1.30;;
74328;SDS011;62745;51.060;13.786;2024-03-25T00:33:45;4.00;;;1.77;;
74328;SDS011;62745;51.060;13.786;2024-03-25T00:36:10;6.38;;;1.67;;
74328;SDS011;62745;51.060;13.786;2024-03-25T00:38:36;4.18;;;1.50;;
74328;SDS011;62745;51.060;13.786;2024-03-25T00:41:01;3.42;;;1.52;;
74328;SDS011;62745;51.060;13.786;2024-03-25T00:43:27;5.03;;;1.73;;
74328;SDS011;62745;51.060;13.786;2024-03-25T00:45:53;4.10;;;1.85;;
74328;SDS011;62745;51.060;13.786;2024-03-25T00:48:18;5.80;;;1.85;;
74328;SDS011;62745;51.060;13.786;2024-03-25T00:50:44;4.38;;;1.67;;
74328;SDS011;62745;51.060;13.786;2024-03-25T00:53:09;3.42;;;1.35;;
74328;SDS011;62745;51.060;13.786;2024-03-25T00:55:35;4.75;;;1.73;;
74328;SDS011;62745;51.060;13.786;2024-03-25T00:58:04;3.65;;;1.73;;
74328;SDS011;62745;51.060;13.786;2024-03-25T01:00:29;3.05;;;1.45;;
74328;SDS011;62745;51.060;13.786;2024-03-25T01:02:55;3.72;;;1.58;;
74328;SDS011;62745;51.060;13.786;2024-03-25T01:05:20;3.58;;;1.65;;
74328;SDS011;62745;51.060;13.786;2024-03-25T01:07:46;4.13;;;1.83;;
74328;SDS011;62745;51.060;13.786;2024-03-25T01:10:11;5.80;;;1.88;;
74328;SDS011;62745;51.060;13.786;2024-03-25T01:12:37;4.10;;;1.65;;
74328;SDS011;62745;51.060;13.786;2024-03-25T01:15:03;4.57;;;1.83;;
74328;SDS011;62745;51.060;13.786;2024-03-25T01:17:29;4.80;;;1.85;;
74328;SDS011;62745;51.060;13.786;2024-03-25T01:19:56;4.30;;;1.63;;
74328;SDS011;62745;51.060;13.786;2024-03-25T01:22:21;4.05;;;1.60;;
74328;SDS011;62745;51.060;13.786;2024-03-25T01:24:47;5.03;;;1.63;;
74328;SDS011;62745;51.060;13.786;2024-03-25T01:27:12;6.72;;;2.00;;
74328;SDS011;62745;51.060;13.786;2024-03-25T01:29:38;4.55;;;2.30;;
74328;SDS011;62745;51.060;13.786;2024-03-25T01:32:04;3.05;;;1.35;;
74328;SDS011;62745;51.060;13.786;2024-03-25T01:34:30;3.60;;;2.03;;
74328;SDS011;62745;51.060;13.786;2024-03-25T01:36:56;3.92;;;1.92;;
74328;SDS011;62745;51.060;13.786;2024-03-25T01:39:22;3.40;;;1.60;;
74328;SDS011;62745;51.060;13.786;2024-03-25T01:41:49;2.70;;;1.20;;
74328;SDS011;62745;51.060;13.786;2024-03-25T01:44:15;2.47;;;1.10;;
74328;SDS011;62745;51.060;13.786;2024-03-25T01:46:41;2.35;;;1.08;;
74328;SDS011;62745;51.060;13.786;2024-03-25T01:49:08;2.17;;;1.02;;
74328;SDS011;62745;51.060;13.786;2024-03-25T01:51:34;2.75;;;0.98;;
74328;SDS011;62745;51.060;13.786;2024-03-25T01:54:03;2.13;;;1.02;;
74328;SDS011;62745;51.060;13.786;2024-03-25T01:56:30;3.10;;;1.42;;
74328;SDS011;62745;51.060;13.786;2024-03-25T01:58:58;3.15;;;1.42;;
74328;SDS011;62745;51.060;13.786;2024-03-25T02:01:24;2.95;;;1.30;;
74328;SDS011;62745;51.060;13.786;2024-03-25T02:03:51;3.75;;;1.75;;
74328;SDS011;62745;51.060;13.786;2024-03-25T02:06:18;2.92;;;1.40;;
74328;SDS011;62745;51.060;13.786;2024-03-25T02:08:46;4.07;;;2.20;;
74328;SDS011;62745;51.060;13.786;2024-03-25T02:11:13;4.82;;;1.77;;
74328;SDS011;62745;51.060;13.786;2024-03-25T02:13:39;3.80;;;1.90;;
74328;SDS011;62745;51.060;13.786;2024-03-25T02:16:05;3.80;;;1.83;;
74328;SDS011;62745;51.060;13.786;2024-03-25T02:18:31;5.47;;;2.13;;
74328;SDS011;62745;51.060;13.786;2024-03-25T02:20:57;4.72;;;2.42;;
74328;SDS011;62745;51.060;13.786;2024-03-25T02:23:23;4.43;;;1.90;;
74328;SDS011;62745;51.060;13.786;2024-03-25T02:25:50;3.90;;;2.10;;
74328;SDS011;62745;51.060;13.786;2024-03-25T02:28:16;5.35;;;2.10;;
74328;SDS011;62745;51.060;13.786;2024-03-25T02:30:42;4.10;;;2.03;;
74328;SDS011;62745;51.060;13.786;2024-03-25T02:33:08;8.02;;;2.65;;
74328;SDS011;62745;51.060;13.786;2024-03-25T02:35:33;5.38;;;2.47;;
74328;SDS011;62745;51.060;13.786;2024-03-25T02:37:59;4.70;;;2.90;;
74328;SDS011;62745;51.060;13.786;2024-03-25T02:40:26;6.85;;;3.38;;
74328;SDS011;62745;51.060;13.786;2024-03-25T02:42:52;5.03;;;2.42;;
74328;SDS011;62745;51.060;13.786;2024-03-25T02:45:19;6.82;;;3.20;;
74328;SDS011;62745;51.060;13.786;2024-03-25T02:47:45;4.55;;;2.42;;
74328;SDS011;62745;51.060;13.786;2024-03-25T02:50:12;5.40;;;2.92;;
74328;SDS011;62745;51.060;13.786;2024-03-25T02:52:37;4.80;;;2.42;;
74328;SDS011;62745;51.060;13.786;2024-03-25T02:55:03;6.00;;;2.92;;
74328;SDS011;62745;51.060;13.786;2024-03-25T02:57:28;6.15;;;3.00;;
74328;SDS011;62745;51.060;13.786;2024-03-25T02:59:54;5.18;;;2.67;;
74328;SDS011;62745;51.060;13.786;2024-03-25T03:02:20;6.32;;;3.25;;
74328;SDS011;62745;51.060;13.786;2024-03-25T03:04:45;7.90;;;3.03;;
74328;SDS011;62745;51.060;13.786;2024-03-25T03:07:11;5.35;;;2.65;;
74328;SDS011;62745;51.060;13.786;2024-03-25T03:09:37;5.63;;;2.53;;
74328;SDS011;62745;51.060;13.786;2024-03-25T03:12:02;7.22;;;2.83;;
74328;SDS011;62745;51.060;13.786;2024-03-25T03:14:28;8.30;;;3.20;;
74328;SDS011;62745;51.060;13.786;2024-03-25T03:16:54;5.00;;;2.70;;
74328;SDS011;62745;51.060;13.786;2024-03-25T03:19:22;5.50;;;2.55;;
74328;SDS011;62745;51.060;13.786;2024-03-25T03:21:47;6.97;;;2.42;;
74328;SDS011;62745;51.060;13.786;2024-03-25T03:24:13;5.72;;;2.35;;
74328;SDS011;62745;51.060;13.786;2024-03-25T03:26:38;6.60;;;2.78;;
74328;SDS011;62745;51.060;13.786;2024-03-25T03:29:04;5.30;;;2.22;;
74328;SDS011;62745;51.060;13.786;2024-03-25T03:31:29;5.05;;;2.17;;
74328;SDS011;62745;51.060;13.786;2024-03-25T03:33:55;6.55;;;2.38;;
74328;SDS011;62745;51.060;13.786;2024-03-25T03:36:21;6.28;;;2.67;;
74328;SDS011;62745;51.060;13.786;2024-03-25T03:38:49;6.35;;;2.53;;
74328;SDS011;62745;51.060;13.786;2024-03-25T03:41:16;4.53;;;2.33;;
74328;SDS011;62745;51.060;13.786;2024-03-25T03:43:41;7.53;;;2.65;;
74328;SDS011;62745;51.060;13.786;2024-03-25T03:46:06;5.38;;;2.25;;
74328;SDS011;62745;51.060;13.786;2024-03-25T03:48:32;7.85;;;2.22;;
74328;SDS011;62745;51.060;13.786;2024-03-25T03:50:57;6.13;;;2.25;;
74328;SDS011;62745;51.060;13.786;2024-03-25T03:53:23;3.70;;;1.75;;
74328;SDS011;62745;51.060;13.786;2024-03-25T03:55:59;4.95;;;1.88;;
74328;SDS011;62745;51.060;13.786;2024-03-25T03:58:35;5.72;;;2.72;;
74328;SDS011;62745;51.060;13.786;2024-03-25T04:01:01;5.00;;;2.05;;
74328;SDS011;62745;51.060;13.786;2024-03-25T04:03:26;7.13;;;2.50;;
74328;SDS011;62745;51.060;13.786;2024-03-25T04:05:52;5.25;;;2.17;;
74328;SDS011;62745;51.060;13.786;2024-03-25T04:08:17;4.70;;;2.58;;
74328;SDS011;62745;51.060;13.786;2024-03-25T04:10:44;4.70;;;2.08;;
74328;SDS011;62745;51.060;13.786;2024-03-25T04:13:10;8.52;;;2.13;;
74328;SDS011;62745;51.060;13.786;2024-03-25T04:15:36;5.80;;;2.42;;
74328;SDS011;62745;51.060;13.786;2024-03-25T04:18:06;5.88;;;2.22;;
74328;SDS011;62745;51.060;13.786;2024-03-25T04:20:36;5.20;;;2.10;;
74328;SDS011;62745;51.060;13.786;2024-03-25T04:25:28;5.68;;;2.72;;
74328;SDS011;62745;51.060;13.786;2024-03-25T04:27:53;5.00;;;2.10;;
74328;SDS011;62745;51.060;13.786;2024-03-25T04:30:19;6.53;;;2.28;;
74328;SDS011;62745;51.060;13.786;2024-03-25T04:32:48;7.15;;;2.03;;
74328;SDS011;62745;51.060;13.786;2024-03-25T04:35:13;5.25;;;2.03;;
74328;SDS011;62745;51.060;13.786;2024-03-25T04:37:38;5.22;;;2.00;;
74328;SDS011;62745;51.060;13.786;2024-03-25T04:40:04;5.85;;;2.22;;
74328;SDS011;62745;51.060;13.786;2024-03-25T04:42:30;5.38;;;1.90;;
74328;SDS011;62745;51.060;13.786;2024-03-25T04:44:57;4.47;;;1.80;;
74328;SDS011;62745;51.060;13.786;2024-03-25T04:47:22;4.47;;;1.65;;
74328;SDS011;62745;51.060;13.786;2024-03-25T04:49:48;5.45;;;1.58;;
74328;SDS011;62745;51.060;13.786;2024-03-25T04:52:13;3.28;;;1.80;;
74328;SDS011;62745;51.060;13.786;2024-03-25T04:54:44;3.58;;;1.75;;
74328;SDS011;62745;51.060;13.786;2024-03-25T04:57:09;5.63;;;2.20;;
74328;SDS011;62745;51.060;13.786;2024-03-25T04:59:35;4.20;;;1.80;;
74328;SDS011;62745;51.060;13.786;2024-03-25T05:02:01;6.13;;;2.00;;
74328;SDS011;62745;51.060;13.786;2024-03-25T05:04:26;2.95;;;1.08;;
74328;SDS011;62745;51.060;13.786;2024-03-25T05:06:52;3.42;;;1.38;;
74328;SDS011;62745;51.060;13.786;2024-03-25T05:09:17;3.10;;;1.60;;
74328;SDS011;62745;51.060;13.786;2024-03-25T05:11:43;4.28;;;1.52;;
74328;SDS011;62745;51.060;13.786;2024-03-25T05:14:09;11.13;;;2.15;;
74328;SDS011;62745;51.060;13.786;2024-03-25T05:16:35;3.88;;;1.50;;
74328;SDS011;62745;51.060;13.786;2024-03-25T05:19:01;6.93;;;1.70;;
74328;SDS011;62745;51.060;13.786;2024-03-25T05:21:27;4.28;;;1.80;;
74328;SDS011;62745;51.060;13.786;2024-03-25T05:23:53;4.47;;;1.67;;
74328;SDS011;62745;51.060;13.786;2024-03-25T05:26:18;7.22;;;1.70;;
74328;SDS011;62745;51.060;13.786;2024-03-25T05:28:44;4.10;;;1.88;;
74328;SDS011;62745;51.060;13.786;2024-03-25T05:31:09;6.55;;;1.98;;
74328;SDS011;62745;51.060;13.786;2024-03-25T05:33:35;4.97;;;2.00;;
74328;SDS011;62745;51.060;13.786;2024-03-25T05:36:01;5.53;;;1.90;;
74328;SDS011;62745;51.060;13.786;2024-03-25T05:38:27;4.45;;;2.33;;
74328;SDS011;62745;51.060;13.786;2024-03-25T05:40:53;6.22;;;2.55;;
74328;SDS011;62745;51.060;13.786;2024-03-25T05:43:19;5.18;;;2.35;;
74328;SDS011;62745;51.060;13.786;2024-03-25T05:45:52;5.80;;;2.00;;
74328;SDS011;62745;51.060;13.786;2024-03-25T05:48:18;4.53;;;2.20;;
74328;SDS011;62745;51.060;13.786;2024-03-25T05:50:45;6.05;;;2.45;;
74328;SDS011;62745;51.060;13.786;2024-03-25T05:53:10;5.13;;;2.65;;
74328;SDS011;62745;51.060;13.786;2024-03-25T05:55:36;5.43;;;2.20;;
74328;SDS011;62745;51.060;13.786;2024-03-25T05:58:02;4.45;;;2.33;;
74328;SDS011;62745;51.060;13.786;2024-03-25T06:00:28;4.97;;;2.40;;
74328;SDS011;62745;51.060;13.786;2024-03-25T06:02:55;5.07;;;2.00;;
74328;SDS011;62745;51.060;13.786;2024-03-25T06:05:21;5.22;;;1.88;;
74328;SDS011;62745;51.060;13.786;2024-03-25T06:07:47;5.45;;;2.08;;
74328;SDS011;62745;51.060;13.786;2024-03-25T06:10:12;6.25;;;2.45;;
74328;SDS011;62745;51.060;13.786;2024-03-25T06:12:38;5.55;;;2.30;;
74328;SDS011;62745;51.060;13.786;2024-03-25T06:15:03;3.65;;;1.70;;
74328;SDS011;62745;51.060;13.786;2024-03-25T06:17:29;4.85;;;2.10;;
74328;SDS011;62745;51.060;13.786;2024-03-25T06:19:54;7.85;;;3.00;;
74328;SDS011;62745;51.060;13.786;2024-03-25T06:22:20;4.05;;;2.05;;
74328;SDS011;62745;51.060;13.786;2024-03-25T06:24:45;4.68;;;2.38;;
74328;SDS011;62745;51.060;13.786;2024-03-25T06:27:11;4.18;;;2.35;;
74328;SDS011;62745;51.060;13.786;2024-03-25T06:29:37;6.55;;;3.22;;
74328;SDS011;62745;51.060;13.786;2024-03-25T06:32:02;4.82;;;2.13;;
74328;SDS011;62745;51.060;13.786;2024-03-25T06:34:46;4.15;;;1.95;;
74328;SDS011;62745;51.060;13.786;2024-03-25T06:37:12;4.72;;;1.65;;
74328;SDS011;62745;51.060;13.786;2024-03-25T06:39:37;4.85;;;1.90;;
74328;SDS011;62745;51.060;13.786;2024-03-25T06:42:03;5.07;;;2.38;;
74328;SDS011;62745;51.060;13.786;2024-03-25T06:44:29;6.40;;;2.03;;
74328;SDS011;62745;51.060;13.786;2024-03-25T06:46:54;5.20;;;2.10;;
74328;SDS011;62745;51.060;13.786;2024-03-25T06:49:21;4.75;;;1.90;;
74328;SDS011;62745;51.060;13.786;2024-03-25T06:51:46;5.35;;;2.00;;
74328;SDS011;62745;51.060;13.786;2024-03-25T06:54:13;4.47;;;1.90;;
74328;SDS011;62745;51.060;13.786;2024-03-25T06:56:39;3.38;;;1.50;;
74328;SDS011;62745;51.060;13.786;2024-03-25T06:59:05;3.80;;;1.73;;
74328;SDS011;62745;51.060;13.786;2024-03-25T07:01:31;3.05;;;1.30;;
74328;SDS011;62745;51.060;13.786;2024-03-25T07:03:57;3.13;;;1.58;;
74328;SDS011;62745;51.060;13.786;2024-03-25T07:06:22;7.55;;;2.00;;
74328;SDS011;62745;51.060;13.786;2024-03-25T07:08:49;4.97;;;1.58;;
74328;SDS011;62745;51.060;13.786;2024-03-25T07:11:14;3.60;;;1.38;;
74328;SDS011;62745;51.060;13.786;2024-03-25T07:13:40;4.63;;;1.30;;
74328;SDS011;62745;51.060;13.786;2024-03-25T07:16:05;3.00;;;1.23;;
74328;SDS011;62745;51.060;13.786;2024-03-25T07:18:33;4.32;;;1.10;;
74328;SDS011;62745;51.060;13.786;2024-03-25T07:20:59;3.80;;;1.30;;
74328;SDS011;62745;51.060;13.786;2024-03-25T07:23:24;5.53;;;1.80;;
74328;SDS011;62745;51.060;13.786;2024-03-25T07:25:50;4.60;;;1.15;;
74328;SDS011;62745;51.060;13.786;2024-03-25T07:28:15;4.75;;;1.33;;
74328;SDS011;62745;51.060;13.786;2024-03-25T07:30:41;3.25;;;1.20;;
74328;SDS011;62745;51.060;13.786;2024-03-25T07:33:07;5.45;;;1.15;;
74328;SDS011;62745;51.060;13.786;2024-03-25T07:35:32;3.63;;;1.40;;
74328;SDS011;62745;51.060;13.786;2024-03-25T07:37:59;4.47;;;1.30;;
74328;SDS011;62745;51.060;13.786;2024-03-25T07:40:24;3.90;;;1.80;;
74328;SDS011;62745;51.060;13.786;2024-03-25T07:42:50;3.25;;;1.10;;
74328;SDS011;62745;51.060;13.786;2024-03-25T07:45:16;4.65;;;2.20;;
74328;SDS011;62745;51.060;13.786;2024-03-25T07:47:41;4.03;;;1.50;;
74328;SDS011;62745;51.060;13.786;2024-03-25T07:50:07;5.55;;;1.70;;
74328;SDS011;62745;51.060;13.786;2024-03-25T07:52:33;5.35;;;1.45;;
74328;SDS011;62745;51.060;13.786;2024-03-25T07:55:01;3.55;;;1.33;;
74328;SDS011;62745;51.060;13.786;2024-03-25T07:57:27;3.15;;;1.63;;
74328;SDS011;62745;51.060;13.786;2024-03-25T07:59:53;3.80;;;1.48;;
74328;SDS011;62745;51.060;13.786;2024-03-25T08:02:18;3.88;;;1.73;;
74328;SDS011;62745;51.060;13.786;2024-03-25T08:04:44;3.85;;;1.42;;
74328;SDS011;62745;51.060;13.786;2024-03-25T08:07:09;3.33;;;1.80;;
74328;SDS011;62745;51.060;13.786;2024-03-25T08:09:35;5.07;;;1.30;;
74328;SDS011;62745;51.060;13.786;2024-03-25T08:12:00;5.93;;;1.92;;
74328;SDS011;62745;51.060;13.786;2024-03-25T08:14:26;3.42;;;1.50;;
74328;SDS011;62745;51.060;13.786;2024-03-25T08:16:51;4.28;;;1.45;;
74328;SDS011;62745;51.060;13.786;2024-03-25T08:19:17;3.67;;;1.48;;
74328;SDS011;62745;51.060;13.786;2024-03-25T08:21:42;3.72;;;1.50;;
74328;SDS011;62745;51.060;13.786;2024-03-25T08:24:08;4.40;;;1.80;;
74328;SDS011;62745;51.060;13.786;2024-03-25T08:26:33;5.18;;;1.60;;
74328;SDS011;62745;51.060;13.786;2024-03-25T08:28:59;6.07;;;2.00;;
74328;SDS011;62745;51.060;13.786;2024-03-25T08:31:24;3.78;;;1.30;;
74328;SDS011;62745;51.060;13.786;2024-03-25T08:33:50;6.35;;;1.83;;
74328;SDS011;62745;51.060;13.786;2024-03-25T08:36:16;4.90;;;1.70;;
74328;SDS011;62745;51.060;13.786;2024-03-25T08:38:43;5.03;;;1.95;;
74328;SDS011;62745;51.060;13.786;2024-03-25T08:41:09;3.80;;;1.73;;
74328;SDS011;62745;51.060;13.786;2024-03-25T08:43:35;3.80;;;1.60;;
74328;SDS011;62745;51.060;13.786;2024-03-25T08:46:00;5.72;;;1.77;;
74328;SDS011;62745;51.060;13.786;2024-03-25T08:48:26;5.93;;;1.80;;
74328;SDS011;62745;51.060;13.786;2024-03-25T08:54:18;6.40;;;1.65;;
74328;SDS011;62745;51.060;13.786;2024-03-25T08:56:43;4.00;;;1.95;;
74328;SDS011;62745;51.060;13.786;2024-03-25T08:59:08;3.63;;;1.70;;
74328;SDS011;62745;51.060;13.786;2024-03-25T09:01:35;4.35;;;1.70;;
74328;SDS011;62745;51.060;13.786;2024-03-25T09:04:00;4.15;;;2.05;;
74328;SDS011;62745;51.060;13.786;2024-03-25T09:06:26;5.50;;;1.90;;
74328;SDS011;62745;51.060;13.786;2024-03-25T09:08:52;5.32;;;2.00;;
74328;SDS011;62745;51.060;13.786;2024-03-25T09:11:37;3.17;;;1.55;;
74328;SDS011;62745;51.060;13.786;2024-03-25T09:14:03;4.78;;;2.00;;
74328;SDS011;62745;51.060;13.786;2024-03-25T09:16:29;4.97;;;1.83;;
74328;SDS011;62745;51.060;13.786;2024-03-25T09:18:55;2.67;;;1.38;;
74328;SDS011;62745;51.060;13.786;2024-03-25T09:21:21;3.83;;;2.03;;
74328;SDS011;62745;51.060;13.786;2024-03-25T09:23:46;5.57;;;1.55;;
74328;SDS011;62745;51.060;13.786;2024-03-25T09:26:13;3.40;;;1.55;;
74328;SDS011;62745;51.060;13.786;2024-03-25T09:28:38;5.32;;;2.08;;
74328;SDS011;62745;51.060;13.786;2024-03-25T09:31:04;5.45;;;1.88;;
74328;SDS011;62745;51.060;13.786;2024-03-25T09:33:31;4.88;;;2.13;;
74328;SDS011;62745;51.060;13.786;2024-03-25T09:35:56;4.53;;;2.08;;
74328;SDS011;62745;51.060;13.786;2024-03-25T09:38:22;5.57;;;1.45;;
74328;SDS011;62745;51.060;13.786;2024-03-25T09:40:47;5.63;;;1.58;;
74328;SDS011;62745;51.060;13.786;2024-03-25T09:43:25;6.55;;;1.30;;
74328;SDS011;62745;51.060;13.786;2024-03-25T09:45:56;3.55;;;1.55;;
74328;SDS011;62745;51.060;13.786;2024-03-25T09:48:24;3.13;;;1.33;;
74328;SDS011;62745;51.060;13.786;2024-03-25T09:50:50;3.45;;;1.35;;
74328;SDS011;62745;51.060;13.786;2024-03-25T09:53:18;3.85;;;1.30;;
74328;SDS011;62745;51.060;13.786;2024-03-25T09:55:46;3.78;;;1.73;;
74328;SDS011;62745;51.060;13.786;2024-03-25T09:58:13;4.03;;;1.48;;
74328;SDS011;62745;51.060;13.786;2024-03-25T10:00:40;3.20;;;1.50;;
74328;SDS011;62745;51.060;13.786;2024-03-25T10:03:06;2.53;;;1.05;;
74328;SDS011;62745;51.060;13.786;2024-03-25T10:05:32;5.50;;;1.67;;
74328;SDS011;62745;51.060;13.786;2024-03-25T10:07:58;4.38;;;1.85;;
74328;SDS011;62745;51.060;13.786;2024-03-25T10:10:23;3.70;;;1.30;;
74328;SDS011;62745;51.060;13.786;2024-03-25T10:12:49;4.18;;;1.70;;
74328;SDS011;62745;51.060;13.786;2024-03-25T10:15:15;3.67;;;1.70;;
74328;SDS011;62745;51.060;13.786;2024-03-25T10:17:41;4.57;;;1.85;;
74328;SDS011;62745;51.060;13.786;2024-03-25T10:20:07;3.30;;;1.60;;
74328;SDS011;62745;51.060;13.786;2024-03-25T10:22:41;5.07;;;1.63;;
74328;SDS011;62745;51.060;13.786;2024-03-25T10:25:18;4.30;;;1.48;;
74328;SDS011;62745;51.060;13.786;2024-03-25T10:27:52;3.08;;;1.15;;
74328;SDS011;62745;51.060;13.786;2024-03-25T10:30:19;3.13;;;1.15;;
74328;SDS011;62745;51.060;13.786;2024-03-25T10:32:44;4.40;;;1.40;;
74328;SDS011;62745;51.060;13.786;2024-03-25T10:35:10;5.18;;;1.98;;
74328;SDS011;62745;51.060;13.786;2024-03-25T10:37:35;4.18;;;1.60;;
74328;SDS011;62745;51.060;13.786;2024-03-25T10:40:01;3.13;;;1.45;;
74328;SDS011;62745;51.060;13.786;2024-03-25T10:42:29;4.85;;;1.92;;
74328;SDS011;62745;51.060;13.786;2024-03-25T10:44:56;4.88;;;1.83;;
74328;SDS011;62745;51.060;13.786;2024-03-25T10:47:23;5.30;;;1.80;;
74328;SDS011;62745;51.060;13.786;2024-03-25T10:49:59;6.13;;;1.90;;
74328;SDS011;62745;51.060;13.786;2024-03-25T10:52:31;4.50;;;1.52;;
74328;SDS011;62745;51.060;13.786;2024-03-25T10:54:58;6.00;;;2.05;;
74328;SDS011;62745;51.060;13.786;2024-03-25T10:57:24;3.83;;;1.63;;
74328;SDS011;62745;51.060;13.786;2024-03-25T10:59:51;3.47;;;1.70;;
74328;SDS011;62745;51.060;13.786;2024-03-25T11:02:17;3.40;;;1.45;;
74328;SDS011;62745;51.060;13.786;2024-03-25T11:04:44;3.92;;;1.30;;
74328;SDS011;62745;51.060;13.786;2024-03-25T11:07:14;3.42;;;1.40;;
74328;SDS011;62745;51.060;13.786;2024-03-25T11:09:40;3.25;;;1.40;;
74328;SDS011;62745;51.060;13.786;2024-03-25T11:12:07;5.30;;;1.88;;
74328;SDS011;62745;51.060;13.786;2024-03-25T11:14:35;4.03;;;1.40;;
74328;SDS011;62745;51.060;13.786;2024-03-25T11:17:01;3.03;;;1.42;;
74328;SDS011;62745;51.060;13.786;2024-03-25T11:19:28;4.05;;;2.05;;
74328;SDS011;62745;51.060;13.786;2024-03-25T11:21:54;6.63;;;1.65;;
74328;SDS011;62745;51.060;13.786;2024-03-25T11:24:31;3.42;;;1.50;;
74328;SDS011;62745;51.060;13.786;2024-03-25T11:26:57;3.95;;;1.60;;
74328;SDS011;62745;51.060;13.786;2024-03-25T11:29:24;3.78;;;1.50;;
74328;SDS011;62745;51.060;13.786;2024-03-25T11:31:49;3.90;;;1.70;;
74328;SDS011;62745;51.060;13.786;2024-03-25T11:34:15;2.78;;;1.30;;
74328;SDS011;62745;51.060;13.786;2024-03-25T11:36:41;5.03;;;1.40;;
74328;SDS011;62745;51.060;13.786;2024-03-25T11:39:06;3.70;;;1.38;;
74328;SDS011;62745;51.060;13.786;2024-03-25T11:41:41;3.42;;;1.42;;
74328;SDS011;62745;51.060;13.786;2024-03-25T11:44:08;3.20;;;1.50;;
74328;SDS011;62745;51.060;13.786;2024-03-25T11:46:37;3.75;;;1.52;;
74328;SDS011;62745;51.060;13.786;2024-03-25T11:49:14;3.90;;;1.40;;
74328;SDS011;62745;51.060;13.786;2024-03-25T11:51:42;4.10;;;1.80;;
74328;SDS011;62745;51.060;13.786;2024-03-25T11:54:10;3.60;;;1.50;;
74328;SDS011;62745;51.060;13.786;2024-03-25T11:56:36;3.30;;;1.52;;
74328;SDS011;62745;51.060;13.786;2024-03-25T11:59:03;4.60;;;1.65;;
74328;SDS011;62745;51.060;13.786;2024-03-25T12:01:28;5.53;;;1.85;;
74328;SDS011;62745;51.060;13.786;2024-03-25T12:03:54;6.38;;;1.73;;
74328;SDS011;62745;51.060;13.786;2024-03-25T12:06:20;5.03;;;1.98;;
74328;SDS011;62745;51.060;13.786;2024-03-25T12:08:46;2.80;;;1.50;;
74328;SDS011;62745;51.060;13.786;2024-03-25T12:11:30;3.03;;;1.33;;
74328;SDS011;62745;51.060;13.786;2024-03-25T12:13:56;4.82;;;1.40;;
74328;SDS011;62745;51.060;13.786;2024-03-25T12:16:22;2.88;;;1.20;;
74328;SDS011;62745;51.060;13.786;2024-03-25T12:18:48;2.85;;;1.15;;
74328;SDS011;62745;51.060;13.786;2024-03-25T12:21:14;3.38;;;1.30;;
74328;SDS011;62745;51.060;13.786;2024-03-25T12:23:39;2.45;;;1.13;;
74328;SDS011;62745;51.060;13.786;2024-03-25T12:26:07;2.50;;;1.23;;
74328;SDS011;62745;51.060;13.786;2024-03-25T12:28:33;2.53;;;1.10;;
74328;SDS011;62745;51.060;13.786;2024-03-25T12:31:06;3.17;;;1.48;;
74328;SDS011;62745;51.060;13.786;2024-03-25T12:36:08;3.80;;;1.20;;
74328;SDS011;62745;51.060;13.786;2024-03-25T12:38:34;3.50;;;1.30;;
74328;SDS011;62745;51.060;13.786;2024-03-25T12:41:03;2.92;;;1.00;;
74328;SDS011;62745;51.060;13.786;2024-03-25T12:43:31;4.68;;;1.20;;
74328;SDS011;62745;51.060;13.786;2024-03-25T12:45:58;3.83;;;1.27;;
74328;SDS011;62745;51.060;13.786;2024-03-25T12:48:24;4.45;;;1.33;;
74328;SDS011;62745;51.060;13.786;2024-03-25T12:50:50;3.42;;;1.40;;
74328;SDS011;62745;51.060;13.786;2024-03-25T12:53:16;3.35;;;1.45;;
74328;SDS011;62745;51.060;13.786;2024-03-25T12:55:44;2.85;;;1.33;;
74328;SDS011;62745;51.060;13.786;2024-03-25T12:58:10;4.57;;;1.67;;
74328;SDS011;62745;51.060;13.786;2024-03-25T13:00:36;3.25;;;1.50;;
74328;SDS011;62745;51.060;13.786;2024-03-25T13:03:01;4.15;;;1.23;;
74328;SDS011;62745;51.060;13.786;2024-03-25T13:05:27;3.20;;;1.33;;
74328;SDS011;62745;51.060;13.786;2024-03-25T13:07:53;4.25;;;0.95;;
74328;SDS011;62745;51.060;13.786;2024-03-25T13:10:19;2.90;;;1.20;;
74328;SDS011;62745;51.060;13.786;2024-03-25T13:12:45;2.78;;;1.10;;
74328;SDS011;62745;51.060;13.786;2024-03-25T13:15:11;4.35;;;1.48;;
74328;SDS011;62745;51.060;13.786;2024-03-25T13:17:37;2.95;;;1.25;;
74328;SDS011;62745;51.060;13.786;2024-03-25T13:20:02;4.95;;;1.70;;
74328;SDS011;62745;51.060;13.786;2024-03-25T13:22:30;4.00;;;1.52;;
74328;SDS011;62745;51.060;13.786;2024-03-25T13:24:57;3.47;;;1.50;;
74328;SDS011;62745;51.060;13.786;2024-03-25T13:27:23;5.30;;;1.48;;
74328;SDS011;62745;51.060;13.786;2024-03-25T13:29:50;2.08;;;0.93;;
74328;SDS011;62745;51.060;13.786;2024-03-25T13:32:17;3.22;;;1.17;;
74328;SDS011;62745;51.060;13.786;2024-03-25T13:34:42;2.25;;;1.00;;
74328;SDS011;62745;51.060;13.786;2024-03-25T13:37:08;3.53;;;1.60;;
74328;SDS011;62745;51.060;13.786;2024-03-25T13:39:33;2.97;;;1.25;;
74328;SDS011;62745;51.060;13.786;2024-03-25T13:41:59;2.92;;;1.10;;
74328;SDS011;62745;51.060;13.786;2024-03-25T13:44:25;2.30;;;1.00;;
74328;SDS011;62745;51.060;13.786;2024-03-25T13:46:50;4.30;;;1.35;;
74328;SDS011;62745;51.060;13.786;2024-03-25T13:49:16;4.72;;;1.25;;
74328;SDS011;62745;51.060;13.786;2024-03-25T13:51:43;2.63;;;1.05;;
74328;SDS011;62745;51.060;13.786;2024-03-25T13:54:09;2.03;;;0.93;;
74328;SDS011;62745;51.060;13.786;2024-03-25T13:56:34;2.30;;;1.10;;
74328;SDS011;62745;51.060;13.786;2024-03-25T13:59:00;3.05;;;1.27;;
74328;SDS011;62745;51.060;13.786;2024-03-25T14:01:25;3.10;;;1.20;;
74328;SDS011;62745;51.060;13.786;2024-03-25T14:03:51;2.95;;;0.90;;
74328;SDS011;62745;51.060;13.786;2024-03-25T14:06:16;3.42;;;1.23;;
74328;SDS011;62745;51.060;13.786;2024-03-25T14:08:42;4.25;;;1.30;;
74328;SDS011;62745;51.060;13.786;2024-03-25T14:11:09;3.20;;;1.20;;
74328;SDS011;62745;51.060;13.786;2024-03-25T14:13:34;3.47;;;1.38;;
74328;SDS011;62745;51.060;13.786;2024-03-25T14:16:00;3.28;;;1.20;;
74328;SDS011;62745;51.060;13.786;2024-03-25T14:18:26;4.82;;;1.30;;
74328;SDS011;62745;51.060;13.786;2024-03-25T14:20:52;2.70;;;1.25;;
74328;SDS011;62745;51.060;13.786;2024-03-25T14:23:18;5.00;;;1.20;;
74328;SDS011;62745;51.060;13.786;2024-03-25T14:25:44;2.38;;;1.08;;
74328;SDS011;62745;51.060;13.786;2024-03-25T14:28:10;4.47;;;1.30;;
74328;SDS011;62745;51.060;13.786;2024-03-25T14:30:35;4.43;;;1.20;;
74328;SDS011;62745;51.060;13.786;2024-03-25T14:33:01;3.65;;;1.00;;
74328;SDS011;62745;51.060;13.786;2024-03-25T14:35:27;2.30;;;1.00;;
74328;SDS011;62745;51.060;13.786;2024-03-25T14:37:52;2.78;;;1.05;;